Pagrindinis puslapis
METAR-TAF:

METAR-TAF

Oro uostai :

Hondo, Teksasas, Jungtinės Amerikos Valstijos

platuma: 29-21-34N, ilguma: 099-10-27W, Aukštis: 283 m

Dabartinis oras

Ataskaita buvo paskelbta 31 minutes, ne 03:51 UTC
Vėjas 7 kt iš Pietryčių
Temperatūra 24°C
Drėgmė 83%
Slėgis 1013 hPa
Matomumas: 16.1 km
Apsiniaukę ne aukštis 1600 ft

METAR: KHDO 170351Z AUTO 13007KT 10SM OVC016 24/21 A2990 RMK AO2 SLP110 T02390206

Laikas: 23:22 (04:22 UTC)


TAF: trūkstamas

Orai ataskaitas ir orų prognozės (METAR, TAF).

turimą stotys yra geltonos ir raudonos taškus žemėlapyje.

Perkelti pele per norėdami pamatyti stoties vardą.

Tada spustelėkite, norėdami matyti oro stebėjimo ir prognozės.

Norėdami pakeisti žemėlapį: spustelėkite ant žalios mygtukų su juodo kryžiaus žemyn,; žalią mygtuką su brūkšneliu, jei norite nutolinti; arba žalių rodyklių gretimoms žemėlapius.


METAR-TAF: